sensor_id;sensor_type;location;lat;lon;timestamp;pressure;altitude;pressure_sealevel;temperature;humidity
57616;BME280;43816;52.054;-9.494;2022-10-31T00:00:08;99693.31;;;22.77;46.62
57616;BME280;43816;52.054;-9.494;2022-10-31T00:00:18;99686.81;;;22.71;46.84
57616;BME280;43816;52.054;-9.494;2022-10-31T00:00:29;99704.91;;;22.79;46.70
57616;BME280;43816;52.054;-9.494;2022-10-31T00:00:40;99684.31;;;22.70;46.55
57616;BME280;43816;52.054;-9.494;2022-10-31T00:00:51;99693.16;;;22.72;46.68
57616;BME280;43816;52.054;-9.494;2022-10-31T00:01:01;99686.59;;;22.73;46.44
57616;BME280;43816;52.054;-9.494;2022-10-31T00:01:36;99695.84;;;22.79;46.69
57616;BME280;43816;52.054;-9.494;2022-10-31T00:01:47;99694.38;;;22.76;46.72
57616;BME280;43816;52.054;-9.494;2022-10-31T00:01:57;99689.34;;;22.73;46.68
57616;BME280;43816;52.054;-9.494;2022-10-31T00:02:07;99692.25;;;22.78;46.74
57616;BME280;43816;52.054;-9.494;2022-10-31T00:02:18;99682.19;;;22.72;46.94
57616;BME280;43816;52.054;-9.494;2022-10-31T00:02:28;99687.69;;;22.72;46.51
57616;BME280;43816;52.054;-9.494;2022-10-31T00:02:38;99700.47;;;22.78;46.65
57616;BME280;43816;52.054;-9.494;2022-10-31T00:02:48;99685.16;;;22.70;46.68
57616;BME280;43816;52.054;-9.494;2022-10-31T00:02:59;99667.22;;;22.68;46.50
57616;BME280;43816;52.054;-9.494;2022-10-31T00:03:09;99699.63;;;22.78;46.53
57616;BME280;43816;52.054;-9.494;2022-10-31T00:03:19;99689.75;;;22.77;46.73
57616;BME280;43816;52.054;-9.494;2022-10-31T00:03:30;99687.22;;;22.75;46.63
57616;BME280;43816;52.054;-9.494;2022-10-31T00:03:40;99687.69;;;22.72;46.45
57616;BME280;43816;52.054;-9.494;2022-10-31T00:03:50;99682.19;;;22.72;46.66
57616;BME280;43816;52.054;-9.494;2022-10-31T00:04:00;99688.28;;;22.74;46.61
57616;BME280;43816;52.054;-9.494;2022-10-31T00:04:11;99675.84;;;22.71;46.61
57616;BME280;43816;52.054;-9.494;2022-10-31T00:04:21;99684.88;;;22.79;46.56
57616;BME280;43816;52.054;-9.494;2022-10-31T00:04:31;99685.53;;;22.74;46.72
57616;BME280;43816;52.054;-9.494;2022-10-31T00:04:42;99679.22;;;22.73;46.67
57616;BME280;43816;52.054;-9.494;2022-10-31T00:04:52;99688.88;;;22.76;46.81
57616;BME280;43816;52.054;-9.494;2022-10-31T00:05:02;99675.91;;;22.65;46.68
57616;BME280;43816;52.054;-9.494;2022-10-31T00:05:13;99695.69;;;22.73;46.89
57616;BME280;43816;52.054;-9.494;2022-10-31T00:05:23;99687.69;;;22.72;46.65
57616;BME280;43816;52.054;-9.494;2022-10-31T00:05:34;99679.44;;;22.72;46.79
57616;BME280;43816;52.054;-9.494;2022-10-31T00:05:48;99682.13;;;22.79;46.64
57616;BME280;43816;52.054;-9.494;2022-10-31T00:05:59;99675.84;;;22.71;46.58
57616;BME280;43816;52.054;-9.494;2022-10-31T00:06:09;99668.09;;;22.68;46.72
57616;BME280;43816;52.054;-9.494;2022-10-31T00:06:20;99670.78;;;22.75;46.55
57616;BME280;43816;52.054;-9.494;2022-10-31T00:06:31;99687.22;;;22.75;46.60
57616;BME280;43816;52.054;-9.494;2022-10-31T00:06:41;99682.56;;;22.76;46.95
57616;BME280;43816;52.054;-9.494;2022-10-31T00:06:51;99671.44;;;22.70;46.46
57616;BME280;43816;52.054;-9.494;2022-10-31T00:07:02;99680.50;;;22.71;46.56
57616;BME280;43816;52.054;-9.494;2022-10-31T00:07:12;99685.09;;;22.77;46.54
57616;BME280;43816;52.054;-9.494;2022-10-31T00:07:22;99674.84;;;22.66;46.66
57616;BME280;43816;52.054;-9.494;2022-10-31T00:07:33;99687.22;;;22.75;46.72
57616;BME280;43816;52.054;-9.494;2022-10-31T00:07:43;99679.28;;;22.67;46.56
57616;BME280;43816;52.054;-9.494;2022-10-31T00:07:53;99679.50;;;22.65;46.58
57616;BME280;43816;52.054;-9.494;2022-10-31T00:08:03;99687.22;;;22.75;46.49
57616;BME280;43816;52.054;-9.494;2022-10-31T00:08:14;99685.53;;;22.74;46.49
57616;BME280;43816;52.054;-9.494;2022-10-31T00:08:25;99679.66;;;22.70;46.64
57616;BME280;43816;52.054;-9.494;2022-10-31T00:08:35;99678.84;;;22.70;46.50
57616;BME280;43816;52.054;-9.494;2022-10-31T00:08:47;99688.44;;;22.79;46.49
57616;BME280;43816;52.054;-9.494;2022-10-31T00:09:03;99686.75;;;22.78;46.68
57616;BME280;43816;52.054;-9.494;2022-10-31T00:09:14;99679.66;;;22.70;46.51
57616;BME280;43816;52.054;-9.494;2022-10-31T00:09:24;99700.25;;;22.80;46.52
57616;BME280;43816;52.054;-9.494;2022-10-31T00:09:34;99683.84;;;22.73;46.62
57616;BME280;43816;52.054;-9.494;2022-10-31T00:09:45;99676.31;;;22.68;46.69
57616;BME280;43816;52.054;-9.494;2022-10-31T00:09:55;99681.09;;;22.73;46.83
57616;BME280;43816;52.054;-9.494;2022-10-31T00:10:06;99675.00;;;22.71;46.63
57616;BME280;43816;52.054;-9.494;2022-10-31T00:10:16;99680.06;;;22.74;46.60
57616;BME280;43816;52.054;-9.494;2022-10-31T00:10:26;99688.88;;;22.76;46.56
57616;BME280;43816;52.054;-9.494;2022-10-31T00:10:38;99689.13;;;22.75;46.75
57616;BME280;43816;52.054;-9.494;2022-10-31T00:10:49;99689.28;;;22.80;46.76
57616;BME280;43816;52.054;-9.494;2022-10-31T00:10:59;99672.88;;;22.73;46.73
57616;BME280;43816;52.054;-9.494;2022-10-31T00:11:10;99682.97;;;22.79;46.70
57616;BME280;43816;52.054;-9.494;2022-10-31T00:11:21;99682.56;;;22.76;46.49
57616;BME280;43816;52.054;-9.494;2022-10-31T00:11:31;99686.16;;;22.76;46.58
57616;BME280;43816;52.054;-9.494;2022-10-31T00:11:41;99684.94;;;22.72;46.57
57616;BME280;43816;52.054;-9.494;2022-10-31T00:11:52;99681.09;;;22.73;46.71
57616;BME280;43816;52.054;-9.494;2022-10-31T00:12:02;99686.38;;;22.75;46.36
57616;BME280;43816;52.054;-9.494;2022-10-31T00:12:12;99691.84;;;22.75;46.69
57616;BME280;43816;52.054;-9.494;2022-10-31T00:12:23;99686.81;;;22.71;46.82
57616;BME280;43816;52.054;-9.494;2022-10-31T00:12:33;99680.28;;;22.72;46.76
57616;BME280;43816;52.054;-9.494;2022-10-31T00:12:43;99679.22;;;22.73;46.76
57616;BME280;43816;52.054;-9.494;2022-10-31T00:12:53;99680.88;;;22.75;46.83
57616;BME280;43816;52.054;-9.494;2022-10-31T00:13:04;99687.22;;;22.75;46.74
57616;BME280;43816;52.054;-9.494;2022-10-31T00:13:14;99693.75;;;22.74;46.74
57616;BME280;43816;52.054;-9.494;2022-10-31T00:13:25;99693.09;;;22.79;46.44
57616;BME280;43816;52.054;-9.494;2022-10-31T00:13:35;99689.13;;;22.75;46.58
57616;BME280;43816;52.054;-9.494;2022-10-31T00:13:46;99684.31;;;22.70;46.59
57616;BME280;43816;52.054;-9.494;2022-10-31T00:13:59;99688.28;;;22.74;46.69
57616;BME280;43816;52.054;-9.494;2022-10-31T00:14:09;99669.53;;;22.71;46.68
57616;BME280;43816;52.054;-9.494;2022-10-31T00:14:19;99688.50;;;22.72;46.45
57616;BME280;43816;52.054;-9.494;2022-10-31T00:14:30;99681.53;;;22.77;46.74
57616;BME280;43816;52.054;-9.494;2022-10-31T00:14:40;99691.84;;;22.75;46.79
57616;BME280;43816;52.054;-9.494;2022-10-31T00:14:50;99682.81;;;22.74;46.75
57616;BME280;43816;52.054;-9.494;2022-10-31T00:15:01;99691.03;;;22.74;46.67
57616;BME280;43816;52.054;-9.494;2022-10-31T00:15:11;99691.84;;;22.75;46.73
57616;BME280;43816;52.054;-9.494;2022-10-31T00:15:21;99694.22;;;22.71;46.71
57616;BME280;43816;52.054;-9.494;2022-10-31T00:15:39;99685.53;;;22.74;46.53
57616;BME280;43816;52.054;-9.494;2022-10-31T00:15:49;99685.53;;;22.74;46.71
57616;BME280;43816;52.054;-9.494;2022-10-31T00:16:00;99677.53;;;22.72;46.56
57616;BME280;43816;52.054;-9.494;2022-10-31T00:16:21;99673.03;;;22.78;46.70
57616;BME280;43816;52.054;-9.494;2022-10-31T00:16:32;99676.25;;;22.75;46.91
57616;BME280;43816;52.054;-9.494;2022-10-31T00:16:42;99684.50;;;22.75;46.75
57616;BME280;43816;52.054;-9.494;2022-10-31T00:16:52;99681.59;;;22.70;46.74
57616;BME280;43816;52.054;-9.494;2022-10-31T00:17:03;99678.84;;;22.70;46.51
57616;BME280;43816;52.054;-9.494;2022-10-31T00:17:13;99689.97;;;22.75;46.71
57616;BME280;43816;52.054;-9.494;2022-10-31T00:17:23;99680.28;;;22.72;46.81
57616;BME280;43816;52.054;-9.494;2022-10-31T00:17:35;99685.53;;;22.74;46.69
57616;BME280;43816;52.054;-9.494;2022-10-31T00:17:45;99680.50;;;22.71;46.68
57616;BME280;43816;52.054;-9.494;2022-10-31T00:17:55;99681.28;;;22.78;46.79
57616;BME280;43816;52.054;-9.494;2022-10-31T00:18:07;99690.81;;;22.76;46.74
57616;BME280;43816;52.054;-9.494;2022-10-31T00:18:17;99673.97;;;22.72;46.78
57616;BME280;43816;52.054;-9.494;2022-10-31T00:18:28;99687.69;;;22.72;46.74
57616;BME280;43816;52.054;-9.494;2022-10-31T00:18:38;99680.50;;;22.71;46.92
57616;BME280;43816;52.054;-9.494;2022-10-31T00:18:50;99671.66;;;22.69;46.60
57616;BME280;43816;52.054;-9.494;2022-10-31T00:19:02;99665.75;;;22.72;46.90
57616;BME280;43816;52.054;-9.494;2022-10-31T00:19:13;99661.31;;;22.71;46.60
57616;BME280;43816;52.054;-9.494;2022-10-31T00:19:23;99659.44;;;22.65;46.70
57616;BME280;43816;52.054;-9.494;2022-10-31T00:19:33;99664.06;;;22.71;46.61
57616;BME280;43816;52.054;-9.494;2022-10-31T00:19:44;99667.41;;;22.73;46.45
57616;BME280;43816;52.054;-9.494;2022-10-31T00:19:54;99672.88;;;22.73;47.06
57616;BME280;43816;52.054;-9.494;2022-10-31T00:20:05;99666.19;;;22.69;46.70
57616;BME280;43816;52.054;-9.494;2022-10-31T00:20:15;99681.28;;;22.78;46.95
57616;BME280;43816;52.054;-9.494;2022-10-31T00:20:25;99676.72;;;22.72;46.78
57616;BME280;43816;52.054;-9.494;2022-10-31T00:20:36;99676.25;;;22.75;46.57
57616;BME280;43816;52.054;-9.494;2022-10-31T00:20:47;99660.69;;;22.69;46.75
57616;BME280;43816;52.054;-9.494;2022-10-31T00:21:01;99676.72;;;22.72;46.54
57616;BME280;43816;52.054;-9.494;2022-10-31T00:21:11;99671.22;;;22.72;46.83
57616;BME280;43816;52.054;-9.494;2022-10-31T00:21:22;99665.75;;;22.72;46.53
57616;BME280;43816;52.054;-9.494;2022-10-31T00:21:33;99676.88;;;22.77;46.79
57616;BME280;43816;52.054;-9.494;2022-10-31T00:21:43;99667.63;;;22.71;46.61
57616;BME280;43816;52.054;-9.494;2022-10-31T00:21:54;99667.22;;;22.68;46.77
57616;BME280;43816;52.054;-9.494;2022-10-31T00:22:04;99673.09;;;22.71;46.76
57616;BME280;43816;52.054;-9.494;2022-10-31T00:22:14;99673.09;;;22.71;46.84
57616;BME280;43816;52.054;-9.494;2022-10-31T00:22:25;99683.03;;;22.72;46.76
57616;BME280;43816;52.054;-9.494;2022-10-31T00:22:35;99677.53;;;22.72;46.62
57616;BME280;43816;52.054;-9.494;2022-10-31T00:22:46;99677.38;;;22.67;46.62
57616;BME280;43816;52.054;-9.494;2022-10-31T00:23:00;99697.72;;;22.78;46.60
57616;BME280;43816;52.054;-9.494;2022-10-31T00:23:11;99674.63;;;22.67;46.74
57616;BME280;43816;52.054;-9.494;2022-10-31T00:23:21;99668.47;;;22.72;46.41
57616;BME280;43816;52.054;-9.494;2022-10-31T00:23:31;99683.41;;;22.76;46.65
57616;BME280;43816;52.054;-9.494;2022-10-31T00:23:42;99683.69;;;22.68;46.70
57616;BME280;43816;52.054;-9.494;2022-10-31T00:23:52;99691.69;;;22.69;46.71
57616;BME280;43816;52.054;-9.494;2022-10-31T00:24:02;99691.47;;;22.71;46.72
57616;BME280;43816;52.054;-9.494;2022-10-31T00:24:13;99676.09;;;22.70;46.87
57616;BME280;43816;52.054;-9.494;2022-10-31T00:24:23;99667.63;;;22.71;46.76
57616;BME280;43816;52.054;-9.494;2022-10-31T00:24:34;99664.50;;;22.68;46.78
57616;BME280;43816;52.054;-9.494;2022-10-31T00:24:44;99666.19;;;22.69;46.73
57616;BME280;43816;52.054;-9.494;2022-10-31T00:24:54;99656.28;;;22.68;46.60
57616;BME280;43816;52.054;-9.494;2022-10-31T00:25:05;99669.97;;;22.68;46.75
57616;BME280;43816;52.054;-9.494;2022-10-31T00:25:15;99655.00;;;22.70;46.82
57616;BME280;43816;52.054;-9.494;2022-10-31T00:25:27;99656.91;;;22.70;46.85
57616;BME280;43816;52.054;-9.494;2022-10-31T00:25:39;99667.88;;;22.70;46.86
57616;BME280;43816;52.054;-9.494;2022-10-31T00:25:49;99680.50;;;22.71;46.79
57616;BME280;43816;52.054;-9.494;2022-10-31T00:26:03;99669.31;;;22.72;46.74
57616;BME280;43816;52.054;-9.494;2022-10-31T00:26:14;99682.34;;;22.77;46.80
57616;BME280;43816;52.054;-9.494;2022-10-31T00:26:26;99671.22;;;22.72;46.95
57616;BME280;43816;52.054;-9.494;2022-10-31T00:26:37;99668.72;;;22.70;46.88
57616;BME280;43816;52.054;-9.494;2022-10-31T00:26:47;99664.50;;;22.68;46.77
57616;BME280;43816;52.054;-9.494;2022-10-31T00:26:57;99663.00;;;22.72;46.79
57616;BME280;43816;52.054;-9.494;2022-10-31T00:27:08;99666.19;;;22.69;46.54
57616;BME280;43816;52.054;-9.494;2022-10-31T00:27:18;99669.53;;;22.71;46.67
57616;BME280;43816;52.054;-9.494;2022-10-31T00:27:28;99672.50;;;22.69;46.76
57616;BME280;43816;52.054;-9.494;2022-10-31T00:27:38;99659.22;;;22.66;46.70
57616;BME280;43816;52.054;-9.494;2022-10-31T00:27:49;99677.91;;;22.76;46.94
57616;BME280;43816;52.054;-9.494;2022-10-31T00:27:59;99663.44;;;22.69;46.89
57616;BME280;43816;52.054;-9.494;2022-10-31T00:28:10;99656.03;;;22.69;46.66
57616;BME280;43816;52.054;-9.494;2022-10-31T00:28:21;99672.44;;;22.76;47.11
57616;BME280;43816;52.054;-9.494;2022-10-31T00:28:31;99656.28;;;22.68;46.78
57616;BME280;43816;52.054;-9.494;2022-10-31T00:28:41;99665.75;;;22.72;46.75
57616;BME280;43816;52.054;-9.494;2022-10-31T00:28:52;99661.75;;;22.68;46.84
57616;BME280;43816;52.054;-9.494;2022-10-31T00:29:02;99670.63;;;22.70;46.83
57616;BME280;43816;52.054;-9.494;2022-10-31T00:29:12;99676.53;;;22.67;46.82
57616;BME280;43816;52.054;-9.494;2022-10-31T00:29:23;99676.72;;;22.72;46.78
57616;BME280;43816;52.054;-9.494;2022-10-31T00:29:33;99694.38;;;22.76;46.73
57616;BME280;43816;52.054;-9.494;2022-10-31T00:29:43;99682.03;;;22.67;46.86
57616;BME280;43816;52.054;-9.494;2022-10-31T00:29:54;99666.63;;;22.66;46.80
57616;BME280;43816;52.054;-9.494;2022-10-31T00:30:04;99667.69;;;22.65;46.98
57616;BME280;43816;52.054;-9.494;2022-10-31T00:30:15;99672.50;;;22.69;46.85
57616;BME280;43816;52.054;-9.494;2022-10-31T00:30:25;99671.22;;;22.72;46.82
57616;BME280;43816;52.054;-9.494;2022-10-31T00:30:35;99638.88;;;22.56;46.96
57616;BME280;43816;52.054;-9.494;2022-10-31T00:30:46;99658.56;;;22.71;46.80
57616;BME280;43816;52.054;-9.494;2022-10-31T00:31:08;99668.03;;;22.75;46.71
57616;BME280;43816;52.054;-9.494;2022-10-31T00:31:19;99653.53;;;22.68;46.75
57616;BME280;43816;52.054;-9.494;2022-10-31T00:31:29;99659.66;;;22.70;46.88
57616;BME280;43816;52.054;-9.494;2022-10-31T00:31:40;99665.75;;;22.72;46.73
57616;BME280;43816;52.054;-9.494;2022-10-31T00:31:52;99674.56;;;22.74;46.73
57616;BME280;43816;52.054;-9.494;2022-10-31T00:32:02;99664.06;;;22.71;46.70
57616;BME280;43816;52.054;-9.494;2022-10-31T00:32:12;99672.66;;;22.75;46.66
57616;BME280;43816;52.054;-9.494;2022-10-31T00:32:23;99672.06;;;22.72;46.75
57616;BME280;43816;52.054;-9.494;2022-10-31T00:32:33;99664.50;;;22.68;46.78
57616;BME280;43816;52.054;-9.494;2022-10-31T00:32:43;99656.91;;;22.70;46.88
57616;BME280;43816;52.054;-9.494;2022-10-31T00:32:54;99661.09;;;22.72;46.74
57616;BME280;43816;52.054;-9.494;2022-10-31T00:33:04;99656.03;;;22.69;46.84
57616;BME280;43816;52.054;-9.494;2022-10-31T00:33:14;99658.56;;;22.71;46.84
57616;BME280;43816;52.054;-9.494;2022-10-31T00:33:25;99659.66;;;22.70;46.71
57616;BME280;43816;52.054;-9.494;2022-10-31T00:33:36;99661.53;;;22.69;46.86
57616;BME280;43816;52.054;-9.494;2022-10-31T00:33:46;99671.22;;;22.72;46.60
57616;BME280;43816;52.054;-9.494;2022-10-31T00:33:57;99668.72;;;22.70;46.36
57616;BME280;43816;52.054;-9.494;2022-10-31T00:34:07;99671.00;;;22.73;46.84
57616;BME280;43816;52.054;-9.494;2022-10-31T00:34:18;99672.44;;;22.76;46.74
57616;BME280;43816;52.054;-9.494;2022-10-31T00:34:28;99661.16;;;22.66;46.71
57616;BME280;43816;52.054;-9.494;2022-10-31T00:34:38;99669.91;;;22.75;46.85
57616;BME280;43816;52.054;-9.494;2022-10-31T00:34:49;99663.44;;;22.69;46.69
57616;BME280;43816;52.054;-9.494;2022-10-31T00:34:59;99658.19;;;22.67;46.83
57616;BME280;43816;52.054;-9.494;2022-10-31T00:35:09;99659.88;;;22.68;46.98
57616;BME280;43816;52.054;-9.494;2022-10-31T00:35:20;99660.94;;;22.67;46.93
57616;BME280;43816;52.054;-9.494;2022-10-31T00:35:30;99658.56;;;22.71;46.80
57616;BME280;43816;52.054;-9.494;2022-10-31T00:35:40;99665.75;;;22.72;46.90
57616;BME280;43816;52.054;-9.494;2022-10-31T00:35:50;99658.19;;;22.67;47.10
57616;BME280;43816;52.054;-9.494;2022-10-31T00:36:01;99658.56;;;22.71;46.96
57616;BME280;43816;52.054;-9.494;2022-10-31T00:36:14;99660.41;;;22.77;46.96
57616;BME280;43816;52.054;-9.494;2022-10-31T00:36:25;99632.28;;;22.63;46.89
57616;BME280;43816;52.054;-9.494;2022-10-31T00:36:35;99652.25;;;22.70;46.78
57616;BME280;43816;52.054;-9.494;2022-10-31T00:36:45;99662.56;;;22.75;46.83
57616;BME280;43816;52.054;-9.494;2022-10-31T00:36:55;99656.91;;;22.70;46.71
57616;BME280;43816;52.054;-9.494;2022-10-31T00:37:06;99656.28;;;22.68;47.08
57616;BME280;43816;52.054;-9.494;2022-10-31T00:37:16;99666.34;;;22.74;46.89
57616;BME280;43816;52.054;-9.494;2022-10-31T00:37:27;99641.97;;;22.66;46.83
57616;BME280;43816;52.054;-9.494;2022-10-31T00:37:37;99646.00;;;22.63;46.83
57616;BME280;43816;52.054;-9.494;2022-10-31T00:37:47;99653.53;;;22.68;47.01
57616;BME280;43816;52.054;-9.494;2022-10-31T00:37:57;99665.06;;;22.77;46.76
57616;BME280;43816;52.054;-9.494;2022-10-31T00:38:08;99656.03;;;22.69;46.83
57616;BME280;43816;52.054;-9.494;2022-10-31T00:38:18;99651.88;;;22.67;46.83
57616;BME280;43816;52.054;-9.494;2022-10-31T00:38:28;99660.69;;;22.69;46.95
57616;BME280;43816;52.054;-9.494;2022-10-31T00:38:39;99654.78;;;22.72;46.73
57616;BME280;43816;52.054;-9.494;2022-10-31T00:38:49;99652.69;;;22.67;46.77
57616;BME280;43816;52.054;-9.494;2022-10-31T00:39:00;99659.22;;;22.66;46.97
57616;BME280;43816;52.054;-9.494;2022-10-31T00:39:10;99651.44;;;22.70;46.78
57616;BME280;43816;52.054;-9.494;2022-10-31T00:39:20;99655.38;;;22.74;46.73
57616;BME280;43816;52.054;-9.494;2022-10-31T00:39:30;99652.03;;;22.72;46.73
57616;BME280;43816;52.054;-9.494;2022-10-31T00:39:41;99651.44;;;22.70;46.93
57616;BME280;43816;52.054;-9.494;2022-10-31T00:39:51;99651.44;;;22.70;46.88
57616;BME280;43816;52.054;-9.494;2022-10-31T00:40:01;99650.56;;;22.69;46.95
57616;BME280;43816;52.054;-9.494;2022-10-31T00:40:12;99658.13;;;22.74;46.90
57616;BME280;43816;52.054;-9.494;2022-10-31T00:40:22;99644.09;;;22.64;46.74
57616;BME280;43816;52.054;-9.494;2022-10-31T00:40:33;99661.09;;;22.72;46.89
57616;BME280;43816;52.054;-9.494;2022-10-31T00:40:43;99653.75;;;22.66;46.89
57616;BME280;43816;52.054;-9.494;2022-10-31T00:40:53;99659.88;;;22.68;46.91
57616;BME280;43816;52.054;-9.494;2022-10-31T00:41:03;99653.09;;;22.71;46.87
57616;BME280;43816;52.054;-9.494;2022-10-31T00:41:16;99651.44;;;22.70;46.35
57616;BME280;43816;52.054;-9.494;2022-10-31T00:41:27;99653.53;;;22.68;47.00
57616;BME280;43816;52.054;-9.494;2022-10-31T00:41:37;99660.25;;;22.72;46.97
57616;BME280;43816;52.054;-9.494;2022-10-31T00:41:47;99657.75;;;22.70;46.76
57616;BME280;43816;52.054;-9.494;2022-10-31T00:41:58;99662.41;;;22.70;47.01
57616;BME280;43816;52.054;-9.494;2022-10-31T00:42:08;99666.13;;;22.76;47.04
57616;BME280;43816;52.054;-9.494;2022-10-31T00:42:18;99657.75;;;22.70;46.91
57616;BME280;43816;52.054;-9.494;2022-10-31T00:42:28;99655.81;;;22.71;47.06
57616;BME280;43816;52.054;-9.494;2022-10-31T00:42:40;99648.03;;;22.68;46.60
57616;BME280;43816;52.054;-9.494;2022-10-31T00:42:50;99644.69;;;22.66;46.82
57616;BME280;43816;52.054;-9.494;2022-10-31T00:43:00;99650.13;;;22.72;46.71
57616;BME280;43816;52.054;-9.494;2022-10-31T00:43:11;99645.94;;;22.70;46.68
57616;BME280;43816;52.054;-9.494;2022-10-31T00:43:21;99646.53;;;22.72;46.78
57616;BME280;43816;52.054;-9.494;2022-10-31T00:43:31;99649.72;;;22.69;46.81
57616;BME280;43816;52.054;-9.494;2022-10-31T00:43:42;99664.44;;;22.75;46.79
57616;BME280;43816;52.054;-9.494;2022-10-31T00:43:53;99658.56;;;22.71;47.14
57616;BME280;43816;52.054;-9.494;2022-10-31T00:44:03;99651.44;;;22.70;46.74
57616;BME280;43816;52.054;-9.494;2022-10-31T00:44:13;99661.09;;;22.72;46.89
57616;BME280;43816;52.054;-9.494;2022-10-31T00:44:24;99653.09;;;22.71;46.83
57616;BME280;43816;52.054;-9.494;2022-10-31T00:44:34;99660.66;;;22.76;46.96
57616;BME280;43816;52.054;-9.494;2022-10-31T00:44:44;99640.47;;;22.70;46.94
57616;BME280;43816;52.054;-9.494;2022-10-31T00:44:54;99638.78;;;22.69;46.96
57616;BME280;43816;52.054;-9.494;2022-10-31T00:45:05;99656.91;;;22.70;46.96
57616;BME280;43816;52.054;-9.494;2022-10-31T00:45:15;99662.56;;;22.75;46.64
57616;BME280;43816;52.054;-9.494;2022-10-31T00:45:26;99663.22;;;22.70;46.77
57616;BME280;43816;52.054;-9.494;2022-10-31T00:45:36;99667.88;;;22.70;46.94
57616;BME280;43816;52.054;-9.494;2022-10-31T00:45:46;99663.59;;;22.74;46.81
57616;BME280;43816;52.054;-9.494;2022-10-31T00:45:57;99652.25;;;22.70;46.93
57616;BME280;43816;52.054;-9.494;2022-10-31T00:46:07;99661.91;;;22.73;46.86
57616;BME280;43816;52.054;-9.494;2022-10-31T00:46:17;99641.50;;;22.69;46.84
57616;BME280;43816;52.054;-9.494;2022-10-31T00:46:28;99644.63;;;22.72;46.83
57616;BME280;43816;52.054;-9.494;2022-10-31T00:46:38;99651.38;;;22.77;46.81
57616;BME280;43816;52.054;-9.494;2022-10-31T00:46:48;99634.72;;;22.71;46.78
57616;BME280;43816;52.054;-9.494;2022-10-31T00:46:58;99631.59;;;22.68;47.06
57616;BME280;43816;52.054;-9.494;2022-10-31T00:47:09;99642.94;;;22.71;46.83
57616;BME280;43816;52.054;-9.494;2022-10-31T00:47:19;99646.53;;;22.72;46.78
57616;BME280;43816;52.054;-9.494;2022-10-31T00:47:29;99656.44;;;22.73;46.97
57616;BME280;43816;52.054;-9.494;2022-10-31T00:47:39;99668.72;;;22.70;46.87
57616;BME280;43816;52.054;-9.494;2022-10-31T00:47:50;99649.50;;;22.70;46.94
57616;BME280;43816;52.054;-9.494;2022-10-31T00:48:00;99660.41;;;22.77;46.80
57616;BME280;43816;52.054;-9.494;2022-10-31T00:48:11;99657.91;;;22.76;46.88
57616;BME280;43816;52.054;-9.494;2022-10-31T00:48:21;99648.69;;;22.70;46.82
57616;BME280;43816;52.054;-9.494;2022-10-31T00:48:32;99645.69;;;22.71;46.99
57616;BME280;43816;52.054;-9.494;2022-10-31T00:48:42;99641.50;;;22.69;46.73
57616;BME280;43816;52.054;-9.494;2022-10-31T00:48:52;99650.94;;;22.73;46.70
57616;BME280;43816;52.054;-9.494;2022-10-31T00:49:02;99643.44;;;22.68;46.86
57616;BME280;43816;52.054;-9.494;2022-10-31T00:49:13;99648.84;;;22.75;46.88
57616;BME280;43816;52.054;-9.494;2022-10-31T00:49:23;99653.09;;;22.71;46.83
57616;BME280;43816;52.054;-9.494;2022-10-31T00:49:33;99645.47;;;22.73;46.70
57616;BME280;43816;52.054;-9.494;2022-10-31T00:49:44;99631.59;;;22.68;47.04
57616;BME280;43816;52.054;-9.494;2022-10-31T00:49:54;99639.00;;;22.67;47.01
57616;BME280;43816;52.054;-9.494;2022-10-31T00:50:05;99641.72;;;22.67;46.83
57616;BME280;43816;52.054;-9.494;2022-10-31T00:50:16;99648.44;;;22.71;46.92
57616;BME280;43816;52.054;-9.494;2022-10-31T00:50:26;99636.03;;;22.69;47.07
57616;BME280;43816;52.054;-9.494;2022-10-31T00:50:37;99634.19;;;22.63;47.06
57616;BME280;43816;52.054;-9.494;2022-10-31T00:50:47;99649.72;;;22.69;47.15
57616;BME280;43816;52.054;-9.494;2022-10-31T00:50:57;99629.78;;;22.62;46.89
57616;BME280;43816;52.054;-9.494;2022-10-31T00:51:08;99627.47;;;22.59;47.02
57616;BME280;43816;52.054;-9.494;2022-10-31T00:51:18;99647.81;;;22.69;46.91
57616;BME280;43816;52.054;-9.494;2022-10-31T00:51:29;99656.66;;;22.71;47.07
57616;BME280;43816;52.054;-9.494;2022-10-31T00:51:39;99648.69;;;22.70;46.95
57616;BME280;43816;52.054;-9.494;2022-10-31T00:51:49;99633.06;;;22.70;47.08
57616;BME280;43816;52.054;-9.494;2022-10-31T00:52:00;99627.88;;;22.62;46.85
57616;BME280;43816;52.054;-9.494;2022-10-31T00:52:10;99641.06;;;22.72;46.67
57616;BME280;43816;52.054;-9.494;2022-10-31T00:52:20;99652.19;;;22.77;46.82
57616;BME280;43816;52.054;-9.494;2022-10-31T00:52:31;99646.53;;;22.72;47.05
57616;BME280;43816;52.054;-9.494;2022-10-31T00:52:41;99645.88;;;22.77;46.76
57616;BME280;43816;52.054;-9.494;2022-10-31T00:52:51;99642.56;;;22.68;46.87
57616;BME280;43816;52.054;-9.494;2022-10-31T00:53:02;99639.97;;;22.73;47.14
57616;BME280;43816;52.054;-9.494;2022-10-31T00:53:12;99642.13;;;22.71;46.77
57616;BME280;43816;52.054;-9.494;2022-10-31T00:53:22;99634.97;;;22.70;46.99
57616;BME280;43816;52.054;-9.494;2022-10-31T00:53:33;99641.66;;;22.74;46.96
57616;BME280;43816;52.054;-9.494;2022-10-31T00:53:43;99638.31;;;22.72;46.89
57616;BME280;43816;52.054;-9.494;2022-10-31T00:53:53;99642.13;;;22.71;46.84
57616;BME280;43816;52.054;-9.494;2022-10-31T00:54:04;99623.88;;;22.58;47.29
57616;BME280;43816;52.054;-9.494;2022-10-31T00:54:14;99644.69;;;22.66;47.00
57616;BME280;43816;52.054;-9.494;2022-10-31T00:54:24;99641.50;;;22.69;47.01
57616;BME280;43816;52.054;-9.494;2022-10-31T00:54:35;99635.88;;;22.64;47.00
57616;BME280;43816;52.054;-9.494;2022-10-31T00:54:45;99647.59;;;22.71;46.74
57616;BME280;43816;52.054;-9.494;2022-10-31T00:54:55;99623.66;;;22.60;46.82
57616;BME280;43816;52.054;-9.494;2022-10-31T00:55:06;99648.44;;;22.71;46.82
57616;BME280;43816;52.054;-9.494;2022-10-31T00:55:16;99652.19;;;22.77;46.93
57616;BME280;43816;52.054;-9.494;2022-10-31T00:55:26;99632.47;;;22.68;46.92
57616;BME280;43816;52.054;-9.494;2022-10-31T00:55:37;99642.50;;;22.75;46.92
57616;BME280;43816;52.054;-9.494;2022-10-31T00:55:47;99641.44;;;22.76;46.97
57616;BME280;43816;52.054;-9.494;2022-10-31T00:55:57;99641.66;;;22.74;47.06